sensor_id;sensor_type;location;lat;lon;timestamp;temperature;humidity
50758;DHT22;36732;47.980;11.652;2022-10-16T00:00:57;16.90;70.70
50758;DHT22;36732;47.980;11.652;2022-10-16T00:03:23;16.90;70.70
50758;DHT22;36732;47.980;11.652;2022-10-16T00:05:49;16.90;70.70
50758;DHT22;36732;47.980;11.652;2022-10-16T00:08:15;16.90;70.40
50758;DHT22;36732;47.980;11.652;2022-10-16T00:10:40;16.90;70.30
50758;DHT22;36732;47.980;11.652;2022-10-16T00:13:07;16.90;70.40
50758;DHT22;36732;47.980;11.652;2022-10-16T00:15:38;16.90;70.40
50758;DHT22;36732;47.980;11.652;2022-10-16T00:18:05;16.90;70.30
50758;DHT22;36732;47.980;11.652;2022-10-16T00:20:33;16.90;70.20
50758;DHT22;36732;47.980;11.652;2022-10-16T00:23:00;16.90;69.90
50758;DHT22;36732;47.980;11.652;2022-10-16T00:25:26;16.90;70.00
50758;DHT22;36732;47.980;11.652;2022-10-16T00:27:51;16.90;69.90
50758;DHT22;36732;47.980;11.652;2022-10-16T00:30:17;16.90;69.80
50758;DHT22;36732;47.980;11.652;2022-10-16T00:32:43;16.90;69.80
50758;DHT22;36732;47.980;11.652;2022-10-16T00:35:08;16.80;69.80
50758;DHT22;36732;47.980;11.652;2022-10-16T00:37:34;16.80;69.90
50758;DHT22;36732;47.980;11.652;2022-10-16T00:40:00;16.80;70.00
50758;DHT22;36732;47.980;11.652;2022-10-16T00:42:26;16.80;69.80
50758;DHT22;36732;47.980;11.652;2022-10-16T00:44:54;16.80;70.00
50758;DHT22;36732;47.980;11.652;2022-10-16T00:47:43;16.80;70.00
50758;DHT22;36732;47.980;11.652;2022-10-16T00:50:24;16.80;69.80
50758;DHT22;36732;47.980;11.652;2022-10-16T00:52:53;16.80;69.80
50758;DHT22;36732;47.980;11.652;2022-10-16T00:55:20;16.70;69.90
50758;DHT22;36732;47.980;11.652;2022-10-16T00:57:46;16.70;69.90
50758;DHT22;36732;47.980;11.652;2022-10-16T01:00:18;16.70;69.90
50758;DHT22;36732;47.980;11.652;2022-10-16T01:02:58;16.70;69.70
50758;DHT22;36732;47.980;11.652;2022-10-16T01:05:42;16.70;69.90
50758;DHT22;36732;47.980;11.652;2022-10-16T01:08:23;16.70;70.00
50758;DHT22;36732;47.980;11.652;2022-10-16T01:13:50;16.70;70.00
50758;DHT22;36732;47.980;11.652;2022-10-16T01:21:49;16.70;70.10
50758;DHT22;36732;47.980;11.652;2022-10-16T01:24:33;16.70;70.10
50758;DHT22;36732;47.980;11.652;2022-10-16T01:27:06;16.70;70.10
50758;DHT22;36732;47.980;11.652;2022-10-16T01:29:56;16.70;70.10
50758;DHT22;36732;47.980;11.652;2022-10-16T01:32:41;16.70;69.90
50758;DHT22;36732;47.980;11.652;2022-10-16T01:35:19;16.70;69.80
50758;DHT22;36732;47.980;11.652;2022-10-16T01:38:03;16.70;69.80
50758;DHT22;36732;47.980;11.652;2022-10-16T01:40:34;16.60;69.70
50758;DHT22;36732;47.980;11.652;2022-10-16T01:43:06;16.60;69.70
50758;DHT22;36732;47.980;11.652;2022-10-16T01:49:16;16.60;69.60
50758;DHT22;36732;47.980;11.652;2022-10-16T01:51:45;16.70;69.80
50758;DHT22;36732;47.980;11.652;2022-10-16T01:54:14;16.70;69.70
50758;DHT22;36732;47.980;11.652;2022-10-16T01:56:42;16.60;69.70
50758;DHT22;36732;47.980;11.652;2022-10-16T01:59:14;16.60;69.70
50758;DHT22;36732;47.980;11.652;2022-10-16T02:01:45;16.60;69.70
50758;DHT22;36732;47.980;11.652;2022-10-16T02:04:53;16.60;69.70
50758;DHT22;36732;47.980;11.652;2022-10-16T02:07:13;16.60;69.70
50758;DHT22;36732;47.980;11.652;2022-10-16T02:09:40;16.60;69.70
50758;DHT22;36732;47.980;11.652;2022-10-16T02:12:32;16.60;69.70
50758;DHT22;36732;47.980;11.652;2022-10-16T02:14:59;16.60;69.80
50758;DHT22;36732;47.980;11.652;2022-10-16T02:17:25;16.60;69.70
50758;DHT22;36732;47.980;11.652;2022-10-16T02:19:53;16.60;69.70
50758;DHT22;36732;47.980;11.652;2022-10-16T02:22:30;16.60;69.70
50758;DHT22;36732;47.980;11.652;2022-10-16T02:25:24;16.60;69.70
50758;DHT22;36732;47.980;11.652;2022-10-16T02:28:16;16.60;69.70
50758;DHT22;36732;47.980;11.652;2022-10-16T02:30:59;16.60;69.80
50758;DHT22;36732;47.980;11.652;2022-10-16T02:33:29;16.60;69.70
50758;DHT22;36732;47.980;11.652;2022-10-16T02:35:57;16.50;69.70
50758;DHT22;36732;47.980;11.652;2022-10-16T02:38:23;16.60;69.80
50758;DHT22;36732;47.980;11.652;2022-10-16T02:40:50;16.60;69.90
50758;DHT22;36732;47.980;11.652;2022-10-16T02:43:16;16.60;69.90
50758;DHT22;36732;47.980;11.652;2022-10-16T02:45:42;16.60;69.90
50758;DHT22;36732;47.980;11.652;2022-10-16T02:48:08;16.60;69.70
50758;DHT22;36732;47.980;11.652;2022-10-16T02:50:34;16.50;69.60
50758;DHT22;36732;47.980;11.652;2022-10-16T02:53:00;16.60;69.70
50758;DHT22;36732;47.980;11.652;2022-10-16T02:55:26;16.60;69.70
50758;DHT22;36732;47.980;11.652;2022-10-16T02:57:53;16.60;69.70
50758;DHT22;36732;47.980;11.652;2022-10-16T03:00:20;16.50;69.50
50758;DHT22;36732;47.980;11.652;2022-10-16T03:02:46;16.50;69.50
50758;DHT22;36732;47.980;11.652;2022-10-16T03:05:13;16.50;69.40
50758;DHT22;36732;47.980;11.652;2022-10-16T03:07:39;16.50;69.30
50758;DHT22;36732;47.980;11.652;2022-10-16T03:10:06;16.50;69.40
50758;DHT22;36732;47.980;11.652;2022-10-16T03:12:32;16.50;69.40
50758;DHT22;36732;47.980;11.652;2022-10-16T03:14:58;16.50;69.30
50758;DHT22;36732;47.980;11.652;2022-10-16T03:17:24;16.50;69.30
50758;DHT22;36732;47.980;11.652;2022-10-16T03:19:50;16.50;69.20
50758;DHT22;36732;47.980;11.652;2022-10-16T03:22:16;16.50;69.20
50758;DHT22;36732;47.980;11.652;2022-10-16T03:24:42;16.50;69.20
50758;DHT22;36732;47.980;11.652;2022-10-16T03:27:07;16.50;69.20
50758;DHT22;36732;47.980;11.652;2022-10-16T03:29:33;16.50;69.10
50758;DHT22;36732;47.980;11.652;2022-10-16T03:31:59;16.50;69.20
50758;DHT22;36732;47.980;11.652;2022-10-16T03:34:26;16.40;69.10
50758;DHT22;36732;47.980;11.652;2022-10-16T03:36:52;16.40;69.00
50758;DHT22;36732;47.980;11.652;2022-10-16T03:39:18;16.40;69.00
50758;DHT22;36732;47.980;11.652;2022-10-16T03:41:44;16.40;69.10
50758;DHT22;36732;47.980;11.652;2022-10-16T03:44:11;16.40;69.10
50758;DHT22;36732;47.980;11.652;2022-10-16T03:46:37;16.40;69.20
50758;DHT22;36732;47.980;11.652;2022-10-16T03:49:03;16.40;69.10
50758;DHT22;36732;47.980;11.652;2022-10-16T03:51:29;16.40;69.10
50758;DHT22;36732;47.980;11.652;2022-10-16T03:53:55;16.40;69.70
50758;DHT22;36732;47.980;11.652;2022-10-16T03:56:20;16.40;68.90
50758;DHT22;36732;47.980;11.652;2022-10-16T03:58:46;16.40;69.10
50758;DHT22;36732;47.980;11.652;2022-10-16T04:01:12;16.40;69.10
50758;DHT22;36732;47.980;11.652;2022-10-16T04:03:37;16.40;69.20
50758;DHT22;36732;47.980;11.652;2022-10-16T04:06:03;16.40;69.30
50758;DHT22;36732;47.980;11.652;2022-10-16T04:08:29;16.40;69.30
50758;DHT22;36732;47.980;11.652;2022-10-16T04:10:55;16.40;69.30
50758;DHT22;36732;47.980;11.652;2022-10-16T04:13:20;16.40;69.40
50758;DHT22;36732;47.980;11.652;2022-10-16T04:15:46;16.40;69.40
50758;DHT22;36732;47.980;11.652;2022-10-16T04:18:12;16.30;69.30
50758;DHT22;36732;47.980;11.652;2022-10-16T04:20:38;16.40;69.60
50758;DHT22;36732;47.980;11.652;2022-10-16T04:23:04;16.40;69.60
50758;DHT22;36732;47.980;11.652;2022-10-16T04:25:30;16.40;69.60
50758;DHT22;36732;47.980;11.652;2022-10-16T04:27:56;16.40;69.60
50758;DHT22;36732;47.980;11.652;2022-10-16T04:30:22;16.40;69.60
50758;DHT22;36732;47.980;11.652;2022-10-16T04:32:52;16.40;69.60
50758;DHT22;36732;47.980;11.652;2022-10-16T04:35:18;16.40;69.60
50758;DHT22;36732;47.980;11.652;2022-10-16T04:37:45;16.40;69.60
50758;DHT22;36732;47.980;11.652;2022-10-16T04:40:11;16.40;69.70
50758;DHT22;36732;47.980;11.652;2022-10-16T04:42:37;16.40;69.80
50758;DHT22;36732;47.980;11.652;2022-10-16T04:45:04;16.40;69.80
50758;DHT22;36732;47.980;11.652;2022-10-16T04:47:31;16.40;69.80
50758;DHT22;36732;47.980;11.652;2022-10-16T04:49:56;16.40;69.80
50758;DHT22;36732;47.980;11.652;2022-10-16T04:52:22;16.40;69.80
50758;DHT22;36732;47.980;11.652;2022-10-16T04:54:50;16.40;70.00
50758;DHT22;36732;47.980;11.652;2022-10-16T04:57:16;16.40;69.90
50758;DHT22;36732;47.980;11.652;2022-10-16T04:59:42;16.40;69.90
50758;DHT22;36732;47.980;11.652;2022-10-16T05:02:08;16.40;69.90
50758;DHT22;36732;47.980;11.652;2022-10-16T05:04:34;16.40;70.00
50758;DHT22;36732;47.980;11.652;2022-10-16T05:07:00;16.40;70.00
50758;DHT22;36732;47.980;11.652;2022-10-16T05:09:25;16.40;70.00
50758;DHT22;36732;47.980;11.652;2022-10-16T05:11:51;16.40;70.10
50758;DHT22;36732;47.980;11.652;2022-10-16T05:14:17;16.40;70.00
50758;DHT22;36732;47.980;11.652;2022-10-16T05:16:43;16.40;69.90
50758;DHT22;36732;47.980;11.652;2022-10-16T05:19:08;16.50;70.10
50758;DHT22;36732;47.980;11.652;2022-10-16T05:21:34;16.50;70.10
50758;DHT22;36732;47.980;11.652;2022-10-16T05:24:00;16.50;70.10
50758;DHT22;36732;47.980;11.652;2022-10-16T05:26:25;16.50;70.20
50758;DHT22;36732;47.980;11.652;2022-10-16T05:28:51;16.50;70.20
50758;DHT22;36732;47.980;11.652;2022-10-16T05:31:17;16.50;70.20
50758;DHT22;36732;47.980;11.652;2022-10-16T05:33:42;16.50;70.30
50758;DHT22;36732;47.980;11.652;2022-10-16T05:36:09;16.50;70.30
50758;DHT22;36732;47.980;11.652;2022-10-16T05:38:36;16.50;70.20
50758;DHT22;36732;47.980;11.652;2022-10-16T05:41:03;16.50;70.10
50758;DHT22;36732;47.980;11.652;2022-10-16T05:43:30;16.50;70.20
50758;DHT22;36732;47.980;11.652;2022-10-16T05:46:04;16.50;70.20
50758;DHT22;36732;47.980;11.652;2022-10-16T05:48:31;16.50;70.00
50758;DHT22;36732;47.980;11.652;2022-10-16T05:51:08;16.50;70.20
50758;DHT22;36732;47.980;11.652;2022-10-16T05:53:36;16.50;70.20
50758;DHT22;36732;47.980;11.652;2022-10-16T05:56:03;16.50;70.10
50758;DHT22;36732;47.980;11.652;2022-10-16T05:58:34;16.50;70.10
50758;DHT22;36732;47.980;11.652;2022-10-16T06:01:04;16.50;70.00
50758;DHT22;36732;47.980;11.652;2022-10-16T06:03:32;16.50;70.20
50758;DHT22;36732;47.980;11.652;2022-10-16T06:05:59;16.50;70.20
50758;DHT22;36732;47.980;11.652;2022-10-16T06:08:24;16.50;70.30
50758;DHT22;36732;47.980;11.652;2022-10-16T06:11:01;16.50;70.20
50758;DHT22;36732;47.980;11.652;2022-10-16T06:13:28;16.50;70.10
50758;DHT22;36732;47.980;11.652;2022-10-16T06:15:57;16.50;70.20
50758;DHT22;36732;47.980;11.652;2022-10-16T06:18:24;16.50;70.40
50758;DHT22;36732;47.980;11.652;2022-10-16T06:20:50;16.50;70.40
50758;DHT22;36732;47.980;11.652;2022-10-16T06:23:15;16.50;70.50
50758;DHT22;36732;47.980;11.652;2022-10-16T06:25:41;16.50;70.60
50758;DHT22;36732;47.980;11.652;2022-10-16T06:28:07;16.50;70.60
50758;DHT22;36732;47.980;11.652;2022-10-16T06:30:33;16.50;70.70
50758;DHT22;36732;47.980;11.652;2022-10-16T06:32:58;16.50;70.70
50758;DHT22;36732;47.980;11.652;2022-10-16T06:35:24;16.50;70.70
50758;DHT22;36732;47.980;11.652;2022-10-16T06:37:50;16.60;70.90
50758;DHT22;36732;47.980;11.652;2022-10-16T06:40:15;16.50;70.90
50758;DHT22;36732;47.980;11.652;2022-10-16T06:42:42;16.60;71.00
50758;DHT22;36732;47.980;11.652;2022-10-16T06:45:08;16.60;70.80
50758;DHT22;36732;47.980;11.652;2022-10-16T06:47:34;16.60;70.80
50758;DHT22;36732;47.980;11.652;2022-10-16T06:49:59;16.60;70.90
50758;DHT22;36732;47.980;11.652;2022-10-16T06:52:27;16.60;70.90
50758;DHT22;36732;47.980;11.652;2022-10-16T06:54:53;16.60;70.80
50758;DHT22;36732;47.980;11.652;2022-10-16T06:57:19;16.60;70.80
50758;DHT22;36732;47.980;11.652;2022-10-16T06:59:45;16.60;70.80
50758;DHT22;36732;47.980;11.652;2022-10-16T07:02:10;16.60;70.80
50758;DHT22;36732;47.980;11.652;2022-10-16T07:04:36;16.70;70.90
50758;DHT22;36732;47.980;11.652;2022-10-16T07:07:02;16.70;70.90
50758;DHT22;36732;47.980;11.652;2022-10-16T07:09:28;16.60;70.90
50758;DHT22;36732;47.980;11.652;2022-10-16T07:11:53;16.70;71.00
50758;DHT22;36732;47.980;11.652;2022-10-16T07:14:21;16.70;71.00
50758;DHT22;36732;47.980;11.652;2022-10-16T07:16:47;16.70;71.00
50758;DHT22;36732;47.980;11.652;2022-10-16T07:19:14;16.70;71.00
50758;DHT22;36732;47.980;11.652;2022-10-16T07:21:42;16.70;71.00
50758;DHT22;36732;47.980;11.652;2022-10-16T07:24:12;16.80;71.10
50758;DHT22;36732;47.980;11.652;2022-10-16T07:26:40;16.70;71.00
50758;DHT22;36732;47.980;11.652;2022-10-16T07:29:15;16.70;71.00
50758;DHT22;36732;47.980;11.652;2022-10-16T07:31:43;16.70;71.10
50758;DHT22;36732;47.980;11.652;2022-10-16T07:34:10;16.70;71.30
50758;DHT22;36732;47.980;11.652;2022-10-16T07:36:37;16.80;71.40
50758;DHT22;36732;47.980;11.652;2022-10-16T07:39:03;16.80;71.50
50758;DHT22;36732;47.980;11.652;2022-10-16T07:41:29;16.80;71.70
50758;DHT22;36732;47.980;11.652;2022-10-16T07:43:55;16.80;71.80
50758;DHT22;36732;47.980;11.652;2022-10-16T07:46:25;16.80;71.90
50758;DHT22;36732;47.980;11.652;2022-10-16T07:48:51;16.80;72.00
50758;DHT22;36732;47.980;11.652;2022-10-16T07:51:19;16.90;72.10
50758;DHT22;36732;47.980;11.652;2022-10-16T07:53:46;16.90;72.30
50758;DHT22;36732;47.980;11.652;2022-10-16T07:56:13;16.90;72.30
50758;DHT22;36732;47.980;11.652;2022-10-16T07:58:39;16.90;72.50
50758;DHT22;36732;47.980;11.652;2022-10-16T08:01:10;16.90;72.60
50758;DHT22;36732;47.980;11.652;2022-10-16T08:03:38;16.90;72.80
50758;DHT22;36732;47.980;11.652;2022-10-16T08:06:06;16.90;72.70
50758;DHT22;36732;47.980;11.652;2022-10-16T08:08:32;17.00;73.00
50758;DHT22;36732;47.980;11.652;2022-10-16T08:10:58;17.00;73.00
50758;DHT22;36732;47.980;11.652;2022-10-16T08:13:23;17.00;73.00
50758;DHT22;36732;47.980;11.652;2022-10-16T08:15:49;17.00;73.10
50758;DHT22;36732;47.980;11.652;2022-10-16T08:18:15;17.00;73.10
50758;DHT22;36732;47.980;11.652;2022-10-16T08:20:42;17.00;73.20
50758;DHT22;36732;47.980;11.652;2022-10-16T08:23:10;17.00;73.10
50758;DHT22;36732;47.980;11.652;2022-10-16T08:25:37;17.10;73.30
50758;DHT22;36732;47.980;11.652;2022-10-16T08:28:04;17.10;73.30
50758;DHT22;36732;47.980;11.652;2022-10-16T08:30:31;17.10;73.30
50758;DHT22;36732;47.980;11.652;2022-10-16T08:32:57;17.10;73.40
50758;DHT22;36732;47.980;11.652;2022-10-16T08:35:23;17.20;73.40
50758;DHT22;36732;47.980;11.652;2022-10-16T08:37:49;17.20;73.50
50758;DHT22;36732;47.980;11.652;2022-10-16T08:40:21;17.20;73.20
50758;DHT22;36732;47.980;11.652;2022-10-16T08:51:14;17.30;72.50
50758;DHT22;36732;47.980;11.652;2022-10-16T08:53:56;17.30;72.60
50758;DHT22;36732;47.980;11.652;2022-10-16T08:56:30;17.30;72.60
50758;DHT22;36732;47.980;11.652;2022-10-16T08:58:57;17.30;72.60
50758;DHT22;36732;47.980;11.652;2022-10-16T09:01:32;17.40;72.90
50758;DHT22;36732;47.980;11.652;2022-10-16T09:07:11;17.40;72.90
50758;DHT22;36732;47.980;11.652;2022-10-16T09:12:48;17.50;72.60
50758;DHT22;36732;47.980;11.652;2022-10-16T09:15:32;17.50;72.70
50758;DHT22;36732;47.980;11.652;2022-10-16T09:18:40;17.50;72.70
50758;DHT22;36732;47.980;11.652;2022-10-16T09:21:20;17.50;72.70
50758;DHT22;36732;47.980;11.652;2022-10-16T09:23:47;17.60;72.90
50758;DHT22;36732;47.980;11.652;2022-10-16T09:26:15;17.60;72.90
50758;DHT22;36732;47.980;11.652;2022-10-16T09:28:42;17.60;72.80
50758;DHT22;36732;47.980;11.652;2022-10-16T09:31:17;17.60;72.70
50758;DHT22;36732;47.980;11.652;2022-10-16T09:33:50;17.60;72.60
50758;DHT22;36732;47.980;11.652;2022-10-16T09:36:19;17.60;72.50
50758;DHT22;36732;47.980;11.652;2022-10-16T09:38:45;17.70;72.70
50758;DHT22;36732;47.980;11.652;2022-10-16T09:41:22;17.70;72.50
50758;DHT22;36732;47.980;11.652;2022-10-16T09:43:53;17.70;72.40
50758;DHT22;36732;47.980;11.652;2022-10-16T09:49:22;17.70;72.80
50758;DHT22;36732;47.980;11.652;2022-10-16T09:51:50;17.80;72.70
50758;DHT22;36732;47.980;11.652;2022-10-16T09:54:21;17.80;72.60
50758;DHT22;36732;47.980;11.652;2022-10-16T09:56:47;17.90;72.60
50758;DHT22;36732;47.980;11.652;2022-10-16T09:59:20;17.90;72.60
50758;DHT22;36732;47.980;11.652;2022-10-16T10:01:53;17.90;72.40
50758;DHT22;36732;47.980;11.652;2022-10-16T10:04:24;17.90;72.50
50758;DHT22;36732;47.980;11.652;2022-10-16T10:06:57;17.90;72.30
50758;DHT22;36732;47.980;11.652;2022-10-16T10:09:32;18.00;72.20
50758;DHT22;36732;47.980;11.652;2022-10-16T10:12:06;18.00;72.10
50758;DHT22;36732;47.980;11.652;2022-10-16T10:14:48;18.00;71.60
50758;DHT22;36732;47.980;11.652;2022-10-16T10:17:26;18.00;71.70
50758;DHT22;36732;47.980;11.652;2022-10-16T10:20:16;18.00;71.70
50758;DHT22;36732;47.980;11.652;2022-10-16T10:22:48;18.10;71.70
50758;DHT22;36732;47.980;11.652;2022-10-16T10:25:29;18.10;71.80
50758;DHT22;36732;47.980;11.652;2022-10-16T10:28:18;18.10;71.40
50758;DHT22;36732;47.980;11.652;2022-10-16T10:33:50;18.10;70.20
50758;DHT22;36732;47.980;11.652;2022-10-16T10:39:06;18.20;70.90
50758;DHT22;36732;47.980;11.652;2022-10-16T10:45:41;18.20;71.10
50758;DHT22;36732;47.980;11.652;2022-10-16T11:34:03;16.10;74.30
50758;DHT22;36732;47.980;11.652;2022-10-16T11:39:28;16.50;73.00
50758;DHT22;36732;47.980;11.652;2022-10-16T11:42:03;16.70;72.50
50758;DHT22;36732;47.980;11.652;2022-10-16T11:47:22;17.20;71.60
50758;DHT22;36732;47.980;11.652;2022-10-16T11:50:03;17.30;69.70
50758;DHT22;36732;47.980;11.652;2022-10-16T11:53:01;17.50;69.30
50758;DHT22;36732;47.980;11.652;2022-10-16T11:55:41;17.70;68.60
50758;DHT22;36732;47.980;11.652;2022-10-16T11:58:37;17.90;69.10
50758;DHT22;36732;47.980;11.652;2022-10-16T12:01:20;18.00;67.70
50758;DHT22;36732;47.980;11.652;2022-10-16T12:04:05;18.00;67.90
50758;DHT22;36732;47.980;11.652;2022-10-16T12:06:42;18.10;66.70
50758;DHT22;36732;47.980;11.652;2022-10-16T12:09:19;18.30;66.60
50758;DHT22;36732;47.980;11.652;2022-10-16T12:11:48;18.30;66.80
50758;DHT22;36732;47.980;11.652;2022-10-16T12:22:51;18.60;66.30
50758;DHT22;36732;47.980;11.652;2022-10-16T12:25:28;18.60;65.50
50758;DHT22;36732;47.980;11.652;2022-10-16T12:30:41;18.70;65.50
50758;DHT22;36732;47.980;11.652;2022-10-16T12:33:40;18.80;65.70
50758;DHT22;36732;47.980;11.652;2022-10-16T12:36:33;18.80;64.70
50758;DHT22;36732;47.980;11.652;2022-10-16T12:38:59;18.80;64.70
50758;DHT22;36732;47.980;11.652;2022-10-16T12:41:34;18.80;66.30
50758;DHT22;36732;47.980;11.652;2022-10-16T12:44:03;18.90;64.60
50758;DHT22;36732;47.980;11.652;2022-10-16T12:51:42;18.90;63.40
50758;DHT22;36732;47.980;11.652;2022-10-16T12:54:12;18.90;64.60
50758;DHT22;36732;47.980;11.652;2022-10-16T12:59:57;18.90;63.50
50758;DHT22;36732;47.980;11.652;2022-10-16T13:02:38;19.00;64.00
50758;DHT22;36732;47.980;11.652;2022-10-16T13:05:42;19.00;64.20
50758;DHT22;36732;47.980;11.652;2022-10-16T13:08:44;19.00;62.80
50758;DHT22;36732;47.980;11.652;2022-10-16T13:19:56;19.20;62.90
50758;DHT22;36732;47.980;11.652;2022-10-16T13:28:30;19.20;62.40
50758;DHT22;36732;47.980;11.652;2022-10-16T13:30:59;19.20;62.30
50758;DHT22;36732;47.980;11.652;2022-10-16T13:33:36;19.20;62.70
50758;DHT22;36732;47.980;11.652;2022-10-16T13:36:05;19.20;62.70
50758;DHT22;36732;47.980;11.652;2022-10-16T13:38:33;19.30;62.70
50758;DHT22;36732;47.980;11.652;2022-10-16T13:43:39;19.30;62.00
50758;DHT22;36732;47.980;11.652;2022-10-16T13:46:10;19.30;61.60
50758;DHT22;36732;47.980;11.652;2022-10-16T13:48:38;19.30;62.10
50758;DHT22;36732;47.980;11.652;2022-10-16T13:53:34;19.40;62.10
50758;DHT22;36732;47.980;11.652;2022-10-16T13:56:03;19.40;61.20
50758;DHT22;36732;47.980;11.652;2022-10-16T13:58:30;19.40;61.00
50758;DHT22;36732;47.980;11.652;2022-10-16T14:01:05;19.40;61.20
50758;DHT22;36732;47.980;11.652;2022-10-16T14:03:41;19.40;60.90
50758;DHT22;36732;47.980;11.652;2022-10-16T14:06:13;19.50;61.00
50758;DHT22;36732;47.980;11.652;2022-10-16T14:09:00;19.50;59.50
50758;DHT22;36732;47.980;11.652;2022-10-16T14:11:31;19.50;59.10
50758;DHT22;36732;47.980;11.652;2022-10-16T14:13:57;19.50;60.20
50758;DHT22;36732;47.980;11.652;2022-10-16T14:16:27;19.50;60.00
50758;DHT22;36732;47.980;11.652;2022-10-16T14:19:01;19.50;59.60
50758;DHT22;36732;47.980;11.652;2022-10-16T14:21:29;19.60;59.10
50758;DHT22;36732;47.980;11.652;2022-10-16T14:23:55;19.60;59.90
50758;DHT22;36732;47.980;11.652;2022-10-16T14:26:27;19.60;60.20
50758;DHT22;36732;47.980;11.652;2022-10-16T14:29:17;19.60;59.40
50758;DHT22;36732;47.980;11.652;2022-10-16T14:31:58;19.60;59.20
50758;DHT22;36732;47.980;11.652;2022-10-16T14:34:29;19.60;60.00
50758;DHT22;36732;47.980;11.652;2022-10-16T14:37:26;19.60;60.40
50758;DHT22;36732;47.980;11.652;2022-10-16T14:39:53;19.60;60.00
50758;DHT22;36732;47.980;11.652;2022-10-16T14:42:24;19.60;60.60
50758;DHT22;36732;47.980;11.652;2022-10-16T14:44:51;19.70;60.60
50758;DHT22;36732;47.980;11.652;2022-10-16T14:47:21;19.70;60.20
50758;DHT22;36732;47.980;11.652;2022-10-16T14:49:51;19.70;60.20
50758;DHT22;36732;47.980;11.652;2022-10-16T14:52:17;19.70;60.20
50758;DHT22;36732;47.980;11.652;2022-10-16T14:54:43;19.70;60.10
50758;DHT22;36732;47.980;11.652;2022-10-16T14:57:20;19.70;60.10
50758;DHT22;36732;47.980;11.652;2022-10-16T14:59:48;19.70;59.40
50758;DHT22;36732;47.980;11.652;2022-10-16T15:02:32;19.80;60.00
50758;DHT22;36732;47.980;11.652;2022-10-16T15:05:15;19.70;59.70
50758;DHT22;36732;47.980;11.652;2022-10-16T15:07:43;19.80;59.60
50758;DHT22;36732;47.980;11.652;2022-10-16T15:10:10;19.80;60.40
50758;DHT22;36732;47.980;11.652;2022-10-16T15:12:35;19.80;60.70
50758;DHT22;36732;47.980;11.652;2022-10-16T15:15:02;19.80;61.20
50758;DHT22;36732;47.980;11.652;2022-10-16T15:17:33;19.80;61.60
50758;DHT22;36732;47.980;11.652;2022-10-16T15:19:59;19.80;61.80
50758;DHT22;36732;47.980;11.652;2022-10-16T15:22:25;19.80;61.90
50758;DHT22;36732;47.980;11.652;2022-10-16T15:24:50;19.80;62.00
50758;DHT22;36732;47.980;11.652;2022-10-16T15:27:16;19.80;62.20
50758;DHT22;36732;47.980;11.652;2022-10-16T15:29:42;19.80;62.70
50758;DHT22;36732;47.980;11.652;2022-10-16T15:32:09;19.80;63.00
50758;DHT22;36732;47.980;11.652;2022-10-16T15:34:35;19.80;63.50
50758;DHT22;36732;47.980;11.652;2022-10-16T15:37:04;19.80;63.70
50758;DHT22;36732;47.980;11.652;2022-10-16T15:39:30;19.80;63.70
50758;DHT22;36732;47.980;11.652;2022-10-16T15:41:56;19.80;64.10
50758;DHT22;36732;47.980;11.652;2022-10-16T15:44:21;19.80;63.90
50758;DHT22;36732;47.980;11.652;2022-10-16T15:46:48;19.80;64.40
50758;DHT22;36732;47.980;11.652;2022-10-16T15:49:14;19.70;64.50
50758;DHT22;36732;47.980;11.652;2022-10-16T15:51:41;19.70;64.80
50758;DHT22;36732;47.980;11.652;2022-10-16T15:54:08;19.70;65.00
50758;DHT22;36732;47.980;11.652;2022-10-16T15:56:34;19.70;65.20
50758;DHT22;36732;47.980;11.652;2022-10-16T15:59:02;19.70;65.20
50758;DHT22;36732;47.980;11.652;2022-10-16T16:01:32;19.60;65.10
50758;DHT22;36732;47.980;11.652;2022-10-16T16:03:59;19.60;65.20
50758;DHT22;36732;47.980;11.652;2022-10-16T16:06:25;19.60;65.40
50758;DHT22;36732;47.980;11.652;2022-10-16T16:08:51;19.60;65.40
50758;DHT22;36732;47.980;11.652;2022-10-16T16:11:18;19.60;65.50
50758;DHT22;36732;47.980;11.652;2022-10-16T16:13:44;19.60;65.80
50758;DHT22;36732;47.980;11.652;2022-10-16T16:16:15;19.60;65.90
50758;DHT22;36732;47.980;11.652;2022-10-16T16:18:42;19.50;65.80
50758;DHT22;36732;47.980;11.652;2022-10-16T16:21:10;19.50;65.80
50758;DHT22;36732;47.980;11.652;2022-10-16T16:23:36;19.50;65.90
50758;DHT22;36732;47.980;11.652;2022-10-16T16:26:23;19.50;66.00
50758;DHT22;36732;47.980;11.652;2022-10-16T16:28:53;19.40;66.30
50758;DHT22;36732;47.980;11.652;2022-10-16T16:31:20;19.40;66.10
50758;DHT22;36732;47.980;11.652;2022-10-16T16:33:46;19.40;66.30
50758;DHT22;36732;47.980;11.652;2022-10-16T16:36:12;19.40;66.30
50758;DHT22;36732;47.980;11.652;2022-10-16T16:38:38;19.40;66.40
50758;DHT22;36732;47.980;11.652;2022-10-16T16:41:13;19.40;66.50
50758;DHT22;36732;47.980;11.652;2022-10-16T16:43:40;19.30;66.70
50758;DHT22;36732;47.980;11.652;2022-10-16T16:46:06;19.30;66.60
50758;DHT22;36732;47.980;11.652;2022-10-16T16:48:32;19.30;66.60
50758;DHT22;36732;47.980;11.652;2022-10-16T16:51:09;19.30;66.60
50758;DHT22;36732;47.980;11.652;2022-10-16T16:53:41;19.30;67.00
50758;DHT22;36732;47.980;11.652;2022-10-16T16:56:08;19.30;66.70
50758;DHT22;36732;47.980;11.652;2022-10-16T16:58:34;19.30;66.70
50758;DHT22;36732;47.980;11.652;2022-10-16T17:01:01;19.20;66.70
50758;DHT22;36732;47.980;11.652;2022-10-16T17:03:34;19.20;66.80
50758;DHT22;36732;47.980;11.652;2022-10-16T17:06:06;19.20;67.00
50758;DHT22;36732;47.980;11.652;2022-10-16T17:08:34;19.20;66.90
50758;DHT22;36732;47.980;11.652;2022-10-16T17:11:00;19.20;66.90
50758;DHT22;36732;47.980;11.652;2022-10-16T17:13:29;19.20;66.90
50758;DHT22;36732;47.980;11.652;2022-10-16T17:15:56;19.20;66.90
50758;DHT22;36732;47.980;11.652;2022-10-16T17:18:23;19.20;66.90
50758;DHT22;36732;47.980;11.652;2022-10-16T17:20:50;19.20;66.80
50758;DHT22;36732;47.980;11.652;2022-10-16T17:23:18;19.10;66.70
50758;DHT22;36732;47.980;11.652;2022-10-16T17:25:44;19.10;66.70
50758;DHT22;36732;47.980;11.652;2022-10-16T17:28:12;19.10;66.70
50758;DHT22;36732;47.980;11.652;2022-10-16T17:30:39;19.10;66.70
50758;DHT22;36732;47.980;11.652;2022-10-16T17:33:08;19.10;66.70
50758;DHT22;36732;47.980;11.652;2022-10-16T17:35:39;19.10;66.70
50758;DHT22;36732;47.980;11.652;2022-10-16T17:38:09;19.10;66.70
50758;DHT22;36732;47.980;11.652;2022-10-16T17:40:37;19.00;66.60
50758;DHT22;36732;47.980;11.652;2022-10-16T17:43:03;19.00;66.60